Time;durP1;ratioP1;P1;durP2;ratioP2;P2;SDS_P1;SDS_P2;PMS_P1;PMS_P2;Temp;Humidity;BMP_temperature;BMP_pressure;BME280_temperature;BME280_humidity;BME280_pressure;Samples;Min_cycle;Max_cycle;Signal;HPM_P1;HPM_P2
2023/06/22 00:02:38;;;;;;;3.58;2.45;;;;;;;22.25;67.76;101908.81;6192432;28;20239;-70
2023/06/22 00:05:59;;;;;;;3.22;2.92;;;;;;;22.16;67.62;101913.53;6224913;28;20236;-71
2023/06/22 00:09:20;;;;;;;3.85;3.42;;;;;;;22.11;68.23;101904.97;6212332;28;20683;-71
2023/06/22 00:12:41;;;;;;;3.33;3.03;;;;;;;22.16;68.25;101899.78;6201690;28;20233;-71
2023/06/22 00:16:01;;;;;;;5.43;3.03;;;;;;;22.08;68.25;101901.75;6212274;28;20240;-69
2023/06/22 00:19:24;;;;;;;4.75;3.58;;;;;;;22.03;68.54;101898.69;6210604;28;20244;-70
2023/06/22 00:22:45;;;;;;;4.00;3.28;;;;;;;22.01;68.88;101892.53;6196201;28;20232;-69
2023/06/22 00:26:06;;;;;;;3.72;3.42;;;;;;;21.95;68.76;101893.28;6221134;28;20236;-70
2023/06/22 00:29:26;;;;;;;2.78;2.55;;;;;;;21.82;69.18;101885.66;6215231;28;20311;-70
2023/06/22 00:32:50;;;;;;;4.20;2.78;;;;;;;21.87;69.61;101899.72;6203613;28;20232;-70
2023/06/22 00:36:16;;;;;;;3.00;2.72;;;;;;;21.97;69.54;101910.44;6222945;28;20233;-70
2023/06/22 00:39:36;;;;;;;2.72;2.53;;;;;;;21.92;69.60;101911.00;6205287;28;20235;-71
2023/06/22 00:42:57;;;;;;;2.50;2.25;;;;;;;22.04;69.51;101912.28;6196260;28;20316;-71
2023/06/22 00:46:18;;;;;;;5.65;2.95;;;;;;;22.04;69.17;101912.28;6205038;28;20500;-70
2023/06/22 00:49:40;;;;;;;2.83;2.63;;;;;;;21.98;70.01;101907.53;6207035;28;20240;-71
2023/06/22 00:53:07;;;;;;;4.25;3.00;;;;;;;21.99;69.78;101909.22;6209165;28;20224;-72
2023/06/22 00:56:29;;;;;;;3.92;2.63;;;;;;;22.09;69.22;101919.97;6215739;28;20231;-71
2023/06/22 00:59:51;;;;;;;2.88;2.63;;;;;;;22.07;69.23;101922.88;6219679;28;20224;-70
2023/06/22 01:03:12;;;;;;;3.35;2.95;;;;;;;21.97;69.22;101911.28;6213802;28;20236;-70
2023/06/22 01:06:39;;;;;;;5.20;3.60;;;;;;;21.81;70.10;101919.66;6211652;28;20237;-70
2023/06/22 01:10:08;;;;;;;4.55;3.38;;;;;;;21.92;69.29;101913.75;6212329;28;20224;-71
2023/06/22 01:13:38;;;;;;;3.85;2.70;;;;;;;21.93;69.02;101909.97;6181047;28;20315;-71
2023/06/22 01:17:00;;;;;;;5.72;2.80;;;;;;;21.78;69.63;101917.25;6223122;28;20239;-70
2023/06/22 01:20:23;;;;;;;4.15;3.28;;;;;;;21.80;69.85;101915.19;6214441;28;20243;-70
2023/06/22 01:23:59;;;;;;;2.42;2.22;;;;;;;21.79;70.05;101916.22;6208312;28;20548;-71
2023/06/22 01:27:33;;;;;;;3.05;2.80;;;;;;;21.67;70.36;101903.97;6222768;28;20858;-71
2023/06/22 01:31:03;;;;;;;2.92;2.72;;;;;;;21.66;70.86;101904.13;6216894;28;20260;-70
2023/06/22 01:34:25;;;;;;;4.13;3.47;;;;;;;21.56;70.99;101889.81;6202582;28;20239;-70
2023/06/22 01:37:46;;;;;;;2.53;2.33;;;;;;;21.63;71.13;101896.28;6211815;28;20228;-70
2023/06/22 01:41:07;;;;;;;3.35;3.05;;;;;;;21.69;70.79;101901.03;6211507;28;20224;-72
2023/06/22 01:44:29;;;;;;;3.58;2.88;;;;;;;21.75;70.66;101895.66;6217117;28;20315;-70
2023/06/22 01:47:52;;;;;;;4.55;3.13;;;;;;;21.68;71.04;101900.19;6218085;28;20229;-69
2023/06/22 01:51:13;;;;;;;3.22;2.92;;;;;;;21.56;70.43;101907.13;6214744;28;20232;-70
2023/06/22 01:54:34;;;;;;;3.45;3.15;;;;;;;21.56;70.69;101904.41;6218334;28;20260;-70
2023/06/22 01:57:55;;;;;;;3.58;3.25;;;;;;;21.49;70.95;101897.91;6217247;28;20244;-70
2023/06/22 02:01:23;;;;;;;4.60;4.10;;;;;;;21.55;70.91;101899.91;6214406;28;20327;-70
2023/06/22 02:04:51;;;;;;;3.67;3.38;;;;;;;21.54;70.82;101903.72;6218853;28;20247;-70
2023/06/22 02:08:17;;;;;;;2.75;2.55;;;;;;;21.59;71.38;101914.16;6215941;28;20239;-70
2023/06/22 02:11:42;;;;;;;6.32;3.70;;;;;;;21.45;71.31;101904.81;6217912;28;20229;-70
2023/06/22 02:15:03;;;;;;;3.47;2.90;;;;;;;21.40;71.34;101910.81;6211200;28;20315;-70
2023/06/22 02:18:25;;;;;;;4.32;3.00;;;;;;;21.39;72.07;101908.28;6207641;28;20232;-71
2023/06/22 02:21:47;;;;;;;3.30;3.00;;;;;;;21.39;71.73;101900.03;6213802;28;20232;-71
2023/06/22 02:25:08;;;;;;;3.83;3.17;;;;;;;21.32;71.94;101910.03;6217257;28;20240;-70
2023/06/22 02:28:29;;;;;;;3.42;3.03;;;;;;;21.14;72.66;101901.22;6210599;28;20297;-70
2023/06/22 02:31:50;;;;;;;3.47;3.17;;;;;;;21.22;72.46;101893.81;6215201;28;20255;-71
2023/06/22 02:35:11;;;;;;;6.35;3.13;;;;;;;21.50;71.94;101874.94;6216832;28;20315;-71
2023/06/22 02:38:36;;;;;;;3.35;2.90;;;;;;;21.47;71.34;101891.75;6213121;28;20232;-70
2023/06/22 02:41:57;;;;;;;6.32;4.80;;;;;;;21.10;71.69;101888.91;6208666;28;20232;-70
2023/06/22 02:45:17;;;;;;;6.32;4.07;;;;;;;20.98;72.04;101887.56;6222210;28;20278;-70
2023/06/22 02:48:38;;;;;;;5.70;3.63;;;;;;;20.97;72.44;101883.97;6218177;28;20264;-71
2023/06/22 02:51:59;;;;;;;3.95;3.55;;;;;;;20.94;72.85;101883.47;6218277;28;20252;-70
2023/06/22 02:55:25;;;;;;;5.05;3.92;;;;;;;21.14;72.65;101880.16;6220774;28;20359;-70
2023/06/22 02:58:50;;;;;;;4.45;4.05;;;;;;;21.19;72.32;101882.34;6217619;28;20267;-70
2023/06/22 03:02:11;;;;;;;4.53;4.13;;;;;;;21.19;72.48;101894.19;6215531;28;20606;-72
2023/06/22 03:05:32;;;;;;;4.78;4.30;;;;;;;21.14;72.64;101895.75;6216456;28;20236;-71
2023/06/22 03:08:54;;;;;;;6.32;5.72;;;;;;;21.11;72.90;101890.63;6227769;28;20233;-70
2023/06/22 03:12:16;;;;;;;4.22;3.80;;;;;;;21.00;73.70;101893.72;6206832;28;20284;-70
2023/06/22 03:15:45;;;;;;;6.35;5.18;;;;;;;21.04;74.03;101895.13;6213542;28;20518;-71
2023/06/22 03:19:06;;;;;;;5.10;4.10;;;;;;;21.03;74.25;101901.63;6203830;28;20236;-70
2023/06/22 03:22:27;;;;;;;4.53;4.13;;;;;;;21.08;73.95;101893.72;6214492;28;20266;-71
2023/06/22 03:25:48;;;;;;;5.05;4.65;;;;;;;21.20;73.35;101897.75;6210138;28;20422;-69
2023/06/22 03:29:13;;;;;;;4.47;4.07;;;;;;;21.20;72.88;101904.09;6226709;28;20232;-70
2023/06/22 03:32:34;;;;;;;4.72;3.83;;;;;;;21.27;72.46;101905.09;6213753;28;20232;-70
2023/06/22 03:35:55;;;;;;;10.18;4.85;;;;;;;21.18;72.63;101910.81;6213072;28;21868;-71
2023/06/22 03:39:16;;;;;;;6.57;5.15;;;;;;;21.21;72.56;101913.19;6214878;28;20232;-70
2023/06/22 03:42:37;;;;;;;5.40;4.22;;;;;;;21.26;72.57;101922.59;6184699;28;20591;-71
2023/06/22 03:46:00;;;;;;;4.57;3.92;;;;;;;21.24;72.59;101924.66;6209447;28;20513;-70
2023/06/22 03:49:21;;;;;;;5.28;4.80;;;;;;;21.24;72.63;101932.03;6214001;28;20245;-70
2023/06/22 03:52:42;;;;;;;5.32;4.82;;;;;;;21.31;72.57;101924.78;6217598;28;20320;-70
2023/06/22 03:56:03;;;;;;;5.28;4.70;;;;;;;21.38;71.84;101928.53;6195546;28;20810;-71
2023/06/22 03:59:24;;;;;;;5.82;4.28;;;;;;;21.49;71.53;101925.34;6216450;28;21517;-71
2023/06/22 04:02:46;;;;;;;5.28;4.60;;;;;;;21.74;70.42;101937.88;6214315;28;21413;-71
2023/06/22 04:06:07;;;;;;;8.70;4.10;;;;;;;21.88;69.73;101939.03;6215714;28;20236;-72
2023/06/22 04:09:28;;;;;;;4.35;3.95;;;;;;;21.72;69.39;101936.34;6215920;28;20513;-70
2023/06/22 04:12:49;;;;;;;5.43;4.55;;;;;;;21.64;69.93;101937.25;6214957;28;20233;-68
2023/06/22 04:16:11;;;;;;;3.80;3.47;;;;;;;21.75;69.89;101939.59;6213798;28;20233;-70
2023/06/22 04:19:33;;;;;;;5.95;4.43;;;;;;;21.87;69.41;101938.16;6206249;28;20749;-71
2023/06/22 04:22:54;;;;;;;4.90;4.07;;;;;;;21.88;69.25;101948.09;6214581;28;20553;-70
2023/06/22 04:26:15;;;;;;;4.93;4.30;;;;;;;21.73;68.96;101955.41;6212082;28;21385;-70
2023/06/22 04:29:36;;;;;;;4.15;3.83;;;;;;;21.88;68.57;101955.50;6216388;28;20248;-71
2023/06/22 04:32:57;;;;;;;5.10;3.35;;;;;;;22.00;68.10;101948.53;6214462;28;20248;-69
2023/06/22 04:36:21;;;;;;;5.65;4.43;;;;;;;21.85;68.03;101950.34;6201214;28;20232;-69
2023/06/22 04:39:42;;;;;;;5.00;4.57;;;;;;;21.89;68.24;101943.47;6216041;28;20228;-70
2023/06/22 04:43:03;;;;;;;8.20;6.05;;;;;;;21.86;68.66;101960.31;6217117;28;20233;-70
2023/06/22 04:46:24;;;;;;;5.68;4.93;;;;;;;21.79;69.02;101956.56;6209844;28;20236;-70
2023/06/22 04:49:45;;;;;;;5.38;4.45;;;;;;;21.95;69.03;101960.06;6209819;28;20232;-69
2023/06/22 04:53:07;;;;;;;5.13;4.05;;;;;;;22.21;68.80;101955.03;6200005;28;20224;-69
2023/06/22 04:56:28;;;;;;;4.75;3.45;;;;;;;22.37;67.96;101945.78;6212920;28;20236;-70
2023/06/22 04:59:49;;;;;;;4.25;3.85;;;;;;;22.53;67.23;101955.75;6214646;28;20232;-69
2023/06/22 05:03:11;;;;;;;3.25;2.95;;;;;;;22.45;66.96;101951.19;6210969;28;20224;-70
2023/06/22 05:06:32;;;;;;;4.28;3.88;;;;;;;22.39;66.97;101948.31;6210871;28;20294;-69
2023/06/22 05:09:54;;;;;;;4.85;4.13;;;;;;;22.56;67.02;101955.38;6215930;28;21556;-71
2023/06/22 05:13:15;;;;;;;3.10;2.85;;;;;;;22.71;65.38;101959.88;6215605;28;20256;-71
2023/06/22 05:16:37;;;;;;;4.00;2.80;;;;;;;22.62;65.14;101955.50;6215627;28;20248;-70
2023/06/22 05:19:58;;;;;;;3.60;2.88;;;;;;;22.64;64.39;101958.94;6215130;28;20231;-70
2023/06/22 05:23:19;;;;;;;2.95;2.70;;;;;;;22.61;64.11;101962.03;6215216;28;20257;-71
2023/06/22 05:26:41;;;;;;;4.43;3.38;;;;;;;22.58;63.94;101958.78;6219647;28;21963;-70
2023/06/22 05:30:02;;;;;;;3.97;2.88;;;;;;;22.61;63.91;101959.28;6213922;28;20236;-71
2023/06/22 05:33:23;;;;;;;3.85;3.53;;;;;;;22.69;63.68;101956.47;6213670;28;20228;-69
2023/06/22 05:36:44;;;;;;;3.15;2.60;;;;;;;22.68;62.96;101959.38;6215051;28;20228;-73
2023/06/22 05:40:07;;;;;;;4.00;3.03;;;;;;;23.19;62.00;101955.69;6214155;28;20237;-73
2023/06/22 05:43:29;;;;;;;4.22;2.90;;;;;;;23.34;60.50;101962.06;6211684;28;20231;-74
2023/06/22 05:46:50;;;;;;;3.63;2.80;;;;;;;23.03;60.84;101958.63;6209020;28;20233;-74
2023/06/22 05:50:11;;;;;;;2.15;1.90;;;;;;;23.10;61.12;101958.72;6208347;28;20228;-73
2023/06/22 05:53:32;;;;;;;3.08;2.17;;;;;;;23.31;60.96;101965.16;6213463;28;20239;-71
2023/06/22 05:56:53;;;;;;;2.90;2.33;;;;;;;23.39;60.54;101967.81;6210438;28;20232;-71
2023/06/22 06:00:16;;;;;;;2.60;2.20;;;;;;;23.74;60.57;101955.09;6202353;28;20328;-73
2023/06/22 06:03:41;;;;;;;2.58;2.33;;;;;;;23.61;58.97;101941.19;6201212;28;20229;-71
2023/06/22 06:07:02;;;;;;;2.15;1.92;;;;;;;23.38;59.73;101948.75;6214553;28;20236;-70
2023/06/22 06:10:23;;;;;;;4.10;2.97;;;;;;;23.58;60.06;101952.59;6213858;28;20355;-72
2023/06/22 06:13:45;;;;;;;3.25;2.30;;;;;;;23.96;58.96;101939.41;6217607;28;20244;-72
2023/06/22 06:17:07;;;;;;;3.45;2.10;;;;;;;23.53;58.49;101950.41;6217825;28;20746;-72
2023/06/22 06:20:28;;;;;;;3.53;2.58;;;;;;;23.61;58.61;101953.03;6213950;28;20228;-70
2023/06/22 06:23:49;;;;;;;4.63;2.28;;;;;;;23.74;58.21;101944.94;6213421;28;20228;-70
2023/06/22 06:27:10;;;;;;;2.25;2.05;;;;;;;23.92;58.39;101941.72;6216969;28;20474;-70
2023/06/22 06:30:31;;;;;;;2.70;2.30;;;;;;;23.81;58.07;101940.34;6215665;28;20618;-71
2023/06/22 06:33:54;;;;;;;3.22;2.60;;;;;;;24.26;58.37;101944.59;6219499;28;20236;-69
2023/06/22 06:37:15;;;;;;;2.83;2.47;;;;;;;24.66;57.95;101942.16;6220283;28;20228;-70
2023/06/22 06:40:36;;;;;;;2.60;2.40;;;;;;;24.70;57.34;101946.22;6220633;28;20229;-71
2023/06/22 06:43:57;;;;;;;2.42;2.22;;;;;;;24.72;58.05;101939.41;6221645;28;20730;-71
2023/06/22 06:47:18;;;;;;;4.43;3.20;;;;;;;24.79;58.18;101937.59;6206211;28;20754;-73
2023/06/22 06:50:40;;;;;;;4.50;2.70;;;;;;;24.94;58.47;101945.75;6215852;28;20233;-71
2023/06/22 06:54:01;;;;;;;3.50;2.13;;;;;;;24.84;57.97;101937.84;6211185;28;20236;-70
2023/06/22 06:57:22;;;;;;;3.40;2.60;;;;;;;24.39;58.90;101930.91;6215859;28;20264;-73
2023/06/22 07:00:44;;;;;;;3.40;2.65;;;;;;;24.77;58.87;101925.91;6209210;28;20237;-73
2023/06/22 07:04:05;;;;;;;3.53;2.65;;;;;;;24.88;58.25;101928.09;6213545;28;20247;-69
2023/06/22 07:07:27;;;;;;;4.57;3.85;;;;;;;24.61;59.01;101931.72;6219758;28;20438;-70
2023/06/22 07:10:48;;;;;;;2.42;2.22;;;;;;;24.43;59.10;101923.94;6221365;28;20225;-71
2023/06/22 07:14:09;;;;;;;2.20;2.10;;;;;;;24.51;59.73;101931.22;6215307;28;20260;-71
2023/06/22 07:17:30;;;;;;;5.75;3.10;;;;;;;24.94;59.15;101929.19;6214810;28;20240;-72
2023/06/22 07:20:51;;;;;;;2.38;2.17;;;;;;;25.22;58.17;101933.56;6209171;28;20236;-70
2023/06/22 07:24:13;;;;;;;3.97;1.80;;;;;;;25.84;57.26;101938.03;6218713;28;20229;-69
2023/06/22 07:27:36;;;;;;;2.08;1.90;;;;;;;25.96;56.19;101930.81;6219744;28;20491;-72
2023/06/22 07:30:57;;;;;;;3.40;2.45;;;;;;;25.68;56.51;101938.44;6221339;28;20511;-73
2023/06/22 07:34:18;;;;;;;2.90;2.53;;;;;;;25.69;56.49;101938.22;6224121;28;20228;-71
2023/06/22 07:37:39;;;;;;;2.10;2.00;;;;;;;26.23;55.70;101928.94;6218325;28;20228;-70
2023/06/22 07:41:02;;;;;;;3.22;2.47;;;;;;;25.84;55.67;101935.25;6217138;28;20229;-71
2023/06/22 07:44:23;;;;;;;1.75;1.40;;;;;;;26.09;55.40;101930.84;6218266;28;20614;-70
2023/06/22 07:47:44;;;;;;;6.88;2.60;;;;;;;26.25;54.18;101941.47;6214381;28;20359;-71
2023/06/22 07:51:06;;;;;;;2.08;1.42;;;;;;;26.28;54.77;101934.69;6216792;28;20232;-70
2023/06/22 07:54:26;;;;;;;2.17;1.98;;;;;;;26.29;53.97;101931.69;6215319;28;20260;-71
2023/06/22 07:57:51;;;;;;;2.50;2.25;;;;;;;26.20;53.82;101938.53;6215041;28;20812;-71
2023/06/22 08:01:12;;;;;;;3.80;3.08;;;;;;;26.25;54.46;101941.47;6214885;28;20788;-72
2023/06/22 08:04:34;;;;;;;2.22;2.03;;;;;;;26.23;53.94;101942.75;6213882;28;20692;-72
2023/06/22 08:07:55;;;;;;;2.97;2.63;;;;;;;25.46;54.09;101940.47;6218985;28;20280;-71
2023/06/22 08:11:16;;;;;;;2.88;2.63;;;;;;;25.97;54.04;101941.63;6220228;28;20796;-72
2023/06/22 08:14:39;;;;;;;2.05;1.55;;;;;;;25.83;53.70;101933.53;6216455;28;21376;-71
2023/06/22 08:18:00;;;;;;;3.08;2.67;;;;;;;26.66;53.29;101941.25;6219800;28;20245;-73
2023/06/22 08:21:21;;;;;;;2.42;1.85;;;;;;;27.29;52.27;101934.03;6219918;28;20232;-69
2023/06/22 08:24:42;;;;;;;2.15;1.80;;;;;;;27.14;51.39;101926.00;6225322;28;20610;-71
2023/06/22 08:28:04;;;;;;;1.95;1.55;;;;;;;27.06;51.48;101920.69;6220275;28;20241;-69
2023/06/22 08:31:26;;;;;;;1.35;1.25;;;;;;;27.14;51.53;101931.53;6218215;28;20871;-69
2023/06/22 08:34:47;;;;;;;4.38;2.25;;;;;;;26.93;50.89;101920.78;6218032;28;20689;-68
2023/06/22 08:38:08;;;;;;;2.80;2.17;;;;;;;26.72;52.43;101916.34;6215394;28;20240;-71
2023/06/22 08:41:29;;;;;;;2.95;2.30;;;;;;;27.04;51.76;101914.53;6222671;28;20646;-71
2023/06/22 08:44:51;;;;;;;2.20;2.00;;;;;;;27.44;51.17;101918.88;6222144;28;20276;-71
2023/06/22 08:48:13;;;;;;;1.58;1.48;;;;;;;27.55;50.79;101914.53;6222980;28;20237;-71
2023/06/22 08:51:34;;;;;;;2.78;2.55;;;;;;;27.81;50.52;101917.13;6223330;28;20240;-72
2023/06/22 08:54:55;;;;;;;4.20;2.10;;;;;;;27.91;50.11;101902.78;6220359;28;20236;-72
2023/06/22 08:58:16;;;;;;;1.65;1.55;;;;;;;28.00;50.28;101902.31;6219387;28;20237;-71
2023/06/22 09:01:36;;;;;;;2.63;2.42;;;;;;;27.99;49.63;101894.22;6217974;28;20677;-71
2023/06/22 09:04:59;;;;;;;2.28;2.13;;;;;;;27.97;49.46;101893.59;6217993;28;20719;-71
2023/06/22 09:08:20;;;;;;;2.67;2.47;;;;;;;27.94;49.53;101894.00;6218475;28;20232;-70
2023/06/22 09:11:41;;;;;;;2.60;1.83;;;;;;;28.00;50.03;101885.66;6210725;28;20713;-73
2023/06/22 09:15:03;;;;;;;2.20;2.00;;;;;;;27.72;50.34;101888.00;6212085;28;20228;-71
2023/06/22 09:18:23;;;;;;;3.03;2.20;;;;;;;27.50;50.75;101889.41;6214500;28;20225;-70
2023/06/22 09:21:46;;;;;;;2.50;2.30;;;;;;;27.77;50.19;101873.44;6218929;28;21461;-71
2023/06/22 09:25:08;;;;;;;2.78;2.38;;;;;;;27.85;50.49;101873.19;6218034;28;20585;-71
2023/06/22 09:28:29;;;;;;;3.45;2.42;;;;;;;28.22;51.08;101870.34;6217858;28;20236;-71
2023/06/22 09:31:50;;;;;;;3.65;2.47;;;;;;;27.51;50.82;101874.50;6223340;28;20228;-72
2023/06/22 09:35:13;;;;;;;2.40;1.95;;;;;;;27.81;51.28;101874.72;6219977;28;20229;-71
2023/06/22 09:38:36;;;;;;;3.53;2.28;;;;;;;27.79;51.62;101866.59;6221405;28;20225;-71
2023/06/22 09:41:59;;;;;;;2.78;2.53;;;;;;;28.14;51.12;101853.94;6223687;28;20236;-71
2023/06/22 09:45:20;;;;;;;2.83;2.55;;;;;;;28.07;51.31;101846.78;6218470;28;20236;-71
2023/06/22 09:48:40;;;;;;;4.45;2.38;;;;;;;28.52;50.92;101850.19;6219320;28;20233;-71
2023/06/22 09:52:01;;;;;;;2.78;2.33;;;;;;;28.56;49.50;101859.75;6211866;28;20247;-71
2023/06/22 09:55:24;;;;;;;2.65;2.45;;;;;;;29.03;49.01;101865.38;6212456;28;20642;-70
2023/06/22 09:58:46;;;;;;;2.60;2.40;;;;;;;28.85;48.97;101859.81;6221906;28;20236;-70
2023/06/22 10:02:07;;;;;;;2.08;1.98;;;;;;;28.74;49.21;101859.75;6221151;28;20260;-71
2023/06/22 10:05:28;;;;;;;4.78;2.13;;;;;;;28.14;49.09;101842.84;6206468;28;20235;-70
2023/06/22 10:08:50;;;;;;;2.92;1.95;;;;;;;28.64;48.82;101843.66;6221897;28;20268;-71
2023/06/22 10:12:13;;;;;;;1.70;1.50;;;;;;;28.84;48.55;101837.84;6210672;28;20766;-69
2023/06/22 10:15:34;;;;;;;2.38;2.08;;;;;;;29.23;48.16;101840.97;6208885;28;20232;-69
2023/06/22 10:18:55;;;;;;;2.72;1.77;;;;;;;29.02;48.56;101840.59;6213733;28;20248;-69
2023/06/22 10:22:16;;;;;;;3.15;2.40;;;;;;;29.20;48.80;101829.50;6212979;28;20245;-72
2023/06/22 10:25:37;;;;;;;2.45;2.17;;;;;;;28.78;48.33;101833.22;6213155;28;20244;-70
2023/06/22 10:28:59;;;;;;;3.63;2.50;;;;;;;28.18;50.17;101834.94;6208346;28;20232;-68
2023/06/22 10:32:20;;;;;;;2.60;2.40;;;;;;;27.11;50.58;101835.06;6206467;28;20319;-69
2023/06/22 10:35:41;;;;;;;2.00;1.90;;;;;;;27.72;50.45;101823.38;6208715;28;20256;-69
2023/06/22 10:39:02;;;;;;;2.92;2.60;;;;;;;28.96;49.75;101820.16;6213832;28;20240;-71
2023/06/22 10:42:24;;;;;;;2.85;2.65;;;;;;;29.35;48.42;101813.25;6225929;28;20252;-72
2023/06/22 10:45:46;;;;;;;3.97;2.55;;;;;;;29.47;48.62;101800.22;6214829;28;20232;-72
2023/06/22 10:49:07;;;;;;;2.92;2.42;;;;;;;28.68;49.15;101808.81;6221024;28;20236;-71
2023/06/22 10:52:27;;;;;;;2.80;2.22;;;;;;;29.48;48.36;101803.81;6221201;28;20229;-70
2023/06/22 10:55:48;;;;;;;2.40;2.22;;;;;;;29.70;47.95;101805.84;6233583;28;20995;-71
2023/06/22 10:59:09;;;;;;;4.55;2.58;;;;;;;30.35;47.52;101800.22;6210610;28;20752;-69
2023/06/22 11:02:34;;;;;;;3.38;3.08;;;;;;;30.65;47.26;101804.50;6209952;28;20244;-68
2023/06/22 11:05:55;;;;;;;2.50;2.30;;;;;;;30.67;46.37;101801.47;6213427;28;20316;-68
2023/06/22 11:09:18;;;;;;;2.88;2.17;;;;;;;30.71;46.83;101799.88;6201580;28;20239;-70
2023/06/22 11:12:39;;;;;;;3.80;3.05;;;;;;;30.32;47.33;101790.41;6193330;28;21172;-68
2023/06/22 11:16:00;;;;;;;2.97;1.98;;;;;;;30.57;46.91;101788.19;6203043;28;20641;-69
2023/06/22 11:19:22;;;;;;;4.05;2.83;;;;;;;30.26;46.89;101782.16;6217658;28;20236;-70
2023/06/22 11:22:43;;;;;;;2.63;2.42;;;;;;;30.25;47.25;101783.25;6223401;28;20239;-68
2023/06/22 11:26:04;;;;;;;2.63;2.42;;;;;;;30.15;47.34;101780.22;6217420;28;20228;-69
2023/06/22 11:29:25;;;;;;;4.10;3.53;;;;;;;30.29;47.34;101773.34;6223990;28;20566;-71
2023/06/22 11:32:48;;;;;;;3.83;3.10;;;;;;;31.07;46.35;101771.69;6214703;28;20228;-70
2023/06/22 11:36:11;;;;;;;1.90;1.80;;;;;;;31.55;46.51;101771.19;6200365;28;20248;-70
2023/06/22 11:39:31;;;;;;;2.47;2.28;;;;;;;30.69;46.36;101782.56;6218075;28;21207;-69
2023/06/22 11:42:53;;;;;;;3.45;3.15;;;;;;;30.75;46.96;101774.09;6215246;28;20237;-70
2023/06/22 11:46:14;;;;;;;2.47;2.28;;;;;;;30.45;47.22;101769.81;6202248;28;20227;-70
2023/06/22 11:49:35;;;;;;;4.05;3.72;;;;;;;30.12;47.66;101767.66;6206715;28;20236;-69
2023/06/22 11:52:57;;;;;;;2.72;2.38;;;;;;;30.45;47.27;101764.25;6206138;28;20228;-70
2023/06/22 11:56:18;;;;;;;4.05;2.80;;;;;;;30.66;47.01;101758.03;6197168;28;20225;-73
2023/06/22 11:59:39;;;;;;;2.42;2.33;;;;;;;30.53;47.63;101756.38;6214530;28;20228;-73
2023/06/22 12:02:59;;;;;;;2.33;2.13;;;;;;;30.17;48.50;101756.63;6209849;28;20252;-70
2023/06/22 12:06:20;;;;;;;4.45;2.78;;;;;;;30.77;48.10;101749.63;6207488;28;20233;-71
2023/06/22 12:09:43;;;;;;;3.13;2.35;;;;;;;31.27;46.09;101744.19;6208895;28;22447;-70
2023/06/22 12:13:04;;;;;;;3.00;2.80;;;;;;;31.24;46.15;101729.91;6217131;28;20622;-70
2023/06/22 12:16:25;;;;;;;2.97;2.78;;;;;;;31.43;45.75;101725.81;6201824;28;20272;-69
2023/06/22 12:19:46;;;;;;;4.32;2.75;;;;;;;31.80;45.52;101721.41;6200328;28;20251;-69
2023/06/22 12:23:07;;;;;;;3.83;3.40;;;;;;;32.31;44.94;101721.03;6209485;28;20241;-69
2023/06/22 12:26:30;;;;;;;2.95;2.75;;;;;;;31.71;45.34;101727.69;6208665;28;20232;-73
2023/06/22 12:29:51;;;;;;;3.15;2.95;;;;;;;30.93;46.20;101724.88;6211213;28;20240;-68
2023/06/22 12:33:11;;;;;;;3.40;3.10;;;;;;;31.06;46.35;101714.28;6209243;28;20232;-70
2023/06/22 12:36:33;;;;;;;4.68;4.28;;;;;;;30.33;47.03;101708.59;6213580;28;20251;-70
2023/06/22 12:39:55;;;;;;;4.53;2.78;;;;;;;30.60;47.63;101706.09;6217321;28;20228;-68
2023/06/22 12:43:17;;;;;;;3.50;2.95;;;;;;;30.67;47.13;101706.78;6217428;28;20241;-70
2023/06/22 12:46:38;;;;;;;3.00;2.70;;;;;;;30.73;47.65;101705.78;6218106;28;20232;-69
2023/06/22 12:49:59;;;;;;;3.17;2.70;;;;;;;31.03;47.12;101698.06;6216104;28;20232;-71
2023/06/22 12:53:22;;;;;;;3.42;3.22;;;;;;;31.10;47.20;101701.53;6221798;28;20232;-72
2023/06/22 12:56:44;;;;;;;2.63;2.42;;;;;;;30.88;47.55;101699.69;6218669;28;20780;-71
2023/06/22 13:00:10;;;;;;;3.63;3.33;;;;;;;31.14;46.62;101688.78;6221292;28;20240;-69
2023/06/22 13:03:30;;;;;;;3.03;2.83;;;;;;;31.38;46.92;101681.09;6212788;28;20236;-70
2023/06/22 13:06:51;;;;;;;3.22;3.03;;;;;;;30.88;47.57;101677.41;6217227;28;20286;-71
2023/06/22 13:10:12;;;;;;;4.20;3.80;;;;;;;30.63;46.82;101684.16;6216022;28;20327;-70
2023/06/22 13:13:33;;;;;;;2.85;2.63;;;;;;;31.03;47.48;101691.63;6211857;28;20232;-71
2023/06/22 13:16:56;;;;;;;4.15;2.75;;;;;;;31.77;46.74;101682.84;6206807;28;20232;-69
2023/06/22 13:20:17;;;;;;;3.97;3.60;;;;;;;32.04;45.95;101677.41;6205861;28;20236;-69
2023/06/22 13:23:37;;;;;;;2.85;2.65;;;;;;;32.00;45.52;101671.50;6207629;28;20228;-72
2023/06/22 13:26:58;;;;;;;2.90;2.70;;;;;;;31.92;45.84;101674.69;6212294;28;20236;-69
2023/06/22 13:30:19;;;;;;;3.25;3.05;;;;;;;31.42;46.59;101679.50;6219600;28;20264;-68
2023/06/22 13:33:41;;;;;;;3.50;3.20;;;;;;;30.58;47.29;101672.09;6201187;28;20248;-70
2023/06/22 13:37:02;;;;;;;4.05;3.35;;;;;;;30.13;48.56;101677.53;6214681;28;20245;-70
2023/06/22 13:40:23;;;;;;;3.00;2.80;;;;;;;30.24;49.29;101679.44;6214075;28;20240;-71
2023/06/22 13:43:44;;;;;;;4.00;3.22;;;;;;;30.05;49.12;101677.06;6217763;28;20532;-71
2023/06/22 13:47:06;;;;;;;2.53;2.40;;;;;;;29.97;48.83;101662.47;6218417;28;20236;-68
2023/06/22 13:50:29;;;;;;;3.65;3.35;;;;;;;29.95;48.81;101653.50;6220160;28;20244;-69
2023/06/22 13:53:50;;;;;;;3.83;3.53;;;;;;;30.23;48.25;101640.75;6215351;28;20260;-69
2023/06/22 13:57:12;;;;;;;3.05;2.63;;;;;;;30.08;48.79;101643.19;6210843;28;20244;-70
2023/06/22 14:00:33;;;;;;;3.28;2.95;;;;;;;30.56;48.19;101635.31;6216220;28;20252;-70
2023/06/22 14:03:54;;;;;;;4.53;3.33;;;;;;;30.41;48.84;101635.00;6214463;28;20323;-70
2023/06/22 14:07:16;;;;;;;3.95;3.30;;;;;;;30.48;48.30;101628.19;6212327;28;20229;-70
2023/06/22 14:10:37;;;;;;;3.00;2.75;;;;;;;29.93;49.53;101633.44;6212738;28;20240;-69
2023/06/22 14:13:58;;;;;;;4.05;3.42;;;;;;;29.66;50.06;101623.03;6222511;28;20236;-71
2023/06/22 14:17:23;;;;;;;3.92;2.95;;;;;;;29.27;50.55;101621.84;6214531;28;21992;-70
2023/06/22 14:20:44;;;;;;;4.90;3.50;;;;;;;28.86;51.17;101633.84;6216681;28;20274;-70
2023/06/22 14:24:07;;;;;;;3.92;2.88;;;;;;;28.86;51.53;101630.22;6219640;28;20237;-71
2023/06/22 14:27:28;;;;;;;3.70;3.40;;;;;;;28.64;51.92;101626.28;6221070;28;20228;-73
2023/06/22 14:30:49;;;;;;;2.83;2.63;;;;;;;28.34;52.38;101617.94;6215780;28;20240;-69
2023/06/22 14:34:10;;;;;;;4.35;2.88;;;;;;;28.46;52.58;101616.91;6208248;28;20236;-71
2023/06/22 14:37:31;;;;;;;4.53;4.13;;;;;;;28.46;52.76;101608.59;6224203;28;20316;-66
2023/06/22 14:40:53;;;;;;;10.13;3.95;;;;;;;28.44;54.65;101609.91;6220067;28;20232;-64
2023/06/22 14:44:14;;;;;;;3.67;2.67;;;;;;;28.30;54.81;101617.56;6224246;28;20233;-65
2023/06/22 14:47:34;;;;;;;3.88;3.22;;;;;;;28.09;56.30;101606.97;6221405;28;20260;-66
2023/06/22 14:50:55;;;;;;;4.45;3.95;;;;;;;28.11;56.57;101613.13;6221601;28;20240;-67
2023/06/22 14:54:16;;;;;;;2.80;2.60;;;;;;;28.23;56.90;101600.16;6217228;28;20339;-68
2023/06/22 14:57:39;;;;;;;5.30;4.90;;;;;;;28.02;57.22;101602.56;6220937;28;20251;-65
2023/06/22 15:01:00;;;;;;;5.80;5.18;;;;;;;28.07;56.38;101594.41;6220034;28;20819;-67
2023/06/22 15:04:20;;;;;;;5.07;3.15;;;;;;;28.10;56.40;101597.56;6215540;28;20248;-68
2023/06/22 15:07:41;;;;;;;4.95;4.53;;;;;;;28.02;56.43;101586.78;6203748;28;20229;-65
2023/06/22 15:11:02;;;;;;;5.65;3.17;;;;;;;27.83;56.07;101582.31;6212960;28;20356;-65
2023/06/22 15:14:25;;;;;;;3.58;2.83;;;;;;;27.77;56.54;101586.00;6217978;28;20232;-64
2023/06/22 15:17:45;;;;;;;3.03;2.83;;;;;;;27.79;56.96;101580.25;6203025;28;20732;-65
2023/06/22 15:21:06;;;;;;;3.20;2.90;;;;;;;27.76;56.58;101561.31;6210339;28;20251;-65
2023/06/22 15:24:27;;;;;;;4.05;3.13;;;;;;;27.82;56.72;101558.47;6211952;28;20226;-65
2023/06/22 15:27:48;;;;;;;3.90;3.50;;;;;;;27.65;56.94;101560.16;6213805;28;20233;-65
2023/06/22 15:31:10;;;;;;;8.23;4.55;;;;;;;27.76;56.34;101551.06;6215311;28;20241;-64
2023/06/22 15:34:31;;;;;;;3.38;2.88;;;;;;;27.88;56.13;101542.81;6208431;28;20252;-64
2023/06/22 15:37:52;;;;;;;3.60;3.30;;;;;;;27.80;55.62;101541.22;6207109;28;20752;-64